createdAt,value
2018-07-24T00:00:07.171Z,22.73
2018-07-24T00:02:33.120Z,22.77
2018-07-24T00:04:59.078Z,22.54
2018-07-24T00:07:25.033Z,22.52
2018-07-24T00:09:50.975Z,22.26
2018-07-24T00:12:16.907Z,22.23
2018-07-24T00:14:42.853Z,22.48
2018-07-24T00:17:08.815Z,22.69
2018-07-24T00:19:34.754Z,22.47
2018-07-24T00:22:00.702Z,22.45
2018-07-24T00:24:26.665Z,22.74
2018-07-24T00:26:52.605Z,22.33
2018-07-24T00:29:18.574Z,22.55
2018-07-24T00:31:44.575Z,22.26
2018-07-24T00:34:10.524Z,22.35
2018-07-24T00:36:36.480Z,22.63
2018-07-24T00:39:02.451Z,22.69
2018-07-24T00:41:28.419Z,22.22
2018-07-24T00:43:54.384Z,22.31
2018-07-24T00:46:20.364Z,22.49
2018-07-24T00:48:46.326Z,22.54
2018-07-24T00:51:12.329Z,22.80
2018-07-24T00:53:38.307Z,22.88
2018-07-24T00:56:04.257Z,23.06
2018-07-24T00:58:30.204Z,23.02
2018-07-24T01:00:57.221Z,22.58
2018-07-24T01:03:23.180Z,22.07
2018-07-24T01:05:49.125Z,22.31
2018-07-24T01:08:15.082Z,22.50
2018-07-24T01:10:41.015Z,22.64
2018-07-24T01:13:06.999Z,22.89
2018-07-24T01:15:32.961Z,22.77
2018-07-24T01:17:58.922Z,22.58
2018-07-24T01:20:24.885Z,22.23
2018-07-24T01:22:50.835Z,22.10
2018-07-24T01:25:16.811Z,21.89
2018-07-24T01:27:42.749Z,22.21
2018-07-24T01:30:08.693Z,22.58
2018-07-24T01:32:34.673Z,22.17
2018-07-24T01:35:00.625Z,22.23
2018-07-24T01:37:26.621Z,22.19
2018-07-24T01:39:52.584Z,22.14
2018-07-24T01:42:18.539Z,21.96
2018-07-24T01:44:44.497Z,22.16
2018-07-24T01:47:10.467Z,22.48
2018-07-24T01:49:36.442Z,22.73
2018-07-24T01:52:02.419Z,22.68
2018-07-24T01:54:28.341Z,22.66
2018-07-24T01:56:54.299Z,22.28
2018-07-24T01:59:20.379Z,22.23
2018-07-24T02:01:46.359Z,22.04
2018-07-24T02:04:12.287Z,21.59
2018-07-24T02:06:38.215Z,21.70
2018-07-24T02:09:04.180Z,21.47
2018-07-24T02:11:30.195Z,21.52
2018-07-24T02:13:56.179Z,21.45
2018-07-24T02:16:22.124Z,21.27
2018-07-24T02:18:48.107Z,20.97
2018-07-24T02:21:14.091Z,21.33
2018-07-24T02:23:40.056Z,21.41
2018-07-24T02:26:06.021Z,21.67
2018-07-24T02:28:32.037Z,21.67
2018-07-24T02:30:58.002Z,21.27
2018-07-24T02:33:23.954Z,21.22
2018-07-24T02:35:49.899Z,21.20
2018-07-24T02:38:15.871Z,21.27
2018-07-24T02:40:41.846Z,21.12
2018-07-24T02:43:07.787Z,20.83
2018-07-24T02:45:33.737Z,20.93
2018-07-24T02:47:59.707Z,21.39
2018-07-24T02:50:25.653Z,21.63
2018-07-24T02:52:51.629Z,21.62
2018-07-24T02:55:17.600Z,21.67
2018-07-24T02:57:43.600Z,21.83
2018-07-24T03:00:09.575Z,21.77
2018-07-24T03:02:35.532Z,21.49
2018-07-24T03:05:01.501Z,21.31
2018-07-24T03:07:27.448Z,21.29
2018-07-24T03:09:53.388Z,21.16
2018-07-24T03:12:19.487Z,21.64
2018-07-24T03:14:45.527Z,21.93
2018-07-24T03:17:11.467Z,22.12
2018-07-24T03:19:37.412Z,22.04
2018-07-24T03:22:03.417Z,21.46
2018-07-24T03:24:29.445Z,21.78
2018-07-24T03:26:55.393Z,21.63
2018-07-24T03:29:21.381Z,21.59
2018-07-24T03:31:48.349Z,21.61
2018-07-24T03:34:14.296Z,21.32
2018-07-24T03:36:40.295Z,21.08
2018-07-24T03:39:06.267Z,21.00
2018-07-24T03:41:32.212Z,20.70
2018-07-24T03:43:58.143Z,20.54
2018-07-24T03:46:24.092Z,20.30
2018-07-24T03:48:50.062Z,20.30
2018-07-24T03:51:16.020Z,20.24
2018-07-24T03:53:41.984Z,20.39
2018-07-24T03:56:07.945Z,20.19
2018-07-24T03:58:33.875Z,20.15
2018-07-24T04:00:59.841Z,20.15
2018-07-24T04:03:25.804Z,20.18
2018-07-24T04:05:51.784Z,20.26
2018-07-24T04:08:17.769Z,20.33
2018-07-24T04:10:43.737Z,20.70
2018-07-24T04:13:09.681Z,20.83
2018-07-24T04:15:35.676Z,20.64
2018-07-24T04:18:01.636Z,20.70
2018-07-24T04:20:27.620Z,20.92
2018-07-24T04:22:53.590Z,21.07
2018-07-24T04:25:19.725Z,20.85
2018-07-24T04:27:45.697Z,21.15
2018-07-24T04:30:11.672Z,20.82
2018-07-24T04:32:37.647Z,20.97
2018-07-24T04:35:03.674Z,21.12
2018-07-24T04:37:29.651Z,21.35
2018-07-24T04:39:55.637Z,21.60
2018-07-24T04:42:21.587Z,22.18
2018-07-24T04:44:47.586Z,22.08
2018-07-24T04:47:13.595Z,22.15
2018-07-24T04:49:39.552Z,22.26
2018-07-24T04:52:05.493Z,22.40
2018-07-24T04:54:31.449Z,22.48
2018-07-24T04:56:57.399Z,22.36
2018-07-24T04:59:23.352Z,22.30
2018-07-24T05:01:49.282Z,22.62
2018-07-24T05:04:15.260Z,23.30
2018-07-24T05:06:41.208Z,23.31
2018-07-24T05:09:07.142Z,23.23
2018-07-24T05:11:33.107Z,23.45
2018-07-24T05:13:59.057Z,23.53
2018-07-24T05:16:24.996Z,23.31
2018-07-24T05:18:50.966Z,23.83
2018-07-24T05:21:16.945Z,23.75
2018-07-24T05:23:42.904Z,24.03
2018-07-24T05:26:08.905Z,24.20
2018-07-24T05:28:34.888Z,24.36
2018-07-24T05:31:00.862Z,24.47
2018-07-24T05:33:26.827Z,24.24
2018-07-24T05:35:52.809Z,24.01
2018-07-24T05:38:18.745Z,24.20
2018-07-24T05:40:44.728Z,24.64
2018-07-24T05:43:10.658Z,24.79
2018-07-24T05:45:36.601Z,25.14
2018-07-24T05:48:03.561Z,25.08
2018-07-24T05:50:29.905Z,24.93
2018-07-24T05:52:55.849Z,25.25
2018-07-24T05:55:21.810Z,25.11
2018-07-24T05:57:47.782Z,25.46
2018-07-24T06:00:13.777Z,24.16
2018-07-24T06:02:39.718Z,24.10
2018-07-24T06:05:05.698Z,24.93
2018-07-24T06:07:31.648Z,24.97
2018-07-24T06:09:57.605Z,25.02
2018-07-24T06:12:23.567Z,25.59
2018-07-24T06:14:49.520Z,25.78
2018-07-24T06:17:15.502Z,25.94
2018-07-24T06:19:41.443Z,25.98
2018-07-24T06:22:07.407Z,26.10
2018-07-24T06:24:33.369Z,26.14
2018-07-24T06:26:59.320Z,26.36
2018-07-24T06:29:25.310Z,26.50
2018-07-24T06:31:51.268Z,26.91
2018-07-24T06:34:17.259Z,26.93
2018-07-24T06:36:43.201Z,27.05
2018-07-24T06:39:09.138Z,27.00
2018-07-24T06:41:35.072Z,27.44
2018-07-24T06:44:01.099Z,27.28
2018-07-24T06:46:27.090Z,27.14
2018-07-24T06:48:53.085Z,26.98
2018-07-24T06:51:19.128Z,27.06
2018-07-24T06:53:45.060Z,27.58
2018-07-24T06:56:11.004Z,27.59
2018-07-24T06:58:36.937Z,27.68
2018-07-24T07:01:02.933Z,27.87
2018-07-24T07:03:28.971Z,27.93
2018-07-24T07:05:54.898Z,28.44
2018-07-24T07:08:20.832Z,27.90
2018-07-24T07:10:46.796Z,28.07
2018-07-24T07:13:12.914Z,28.67
2018-07-24T07:15:39.915Z,29.00
2018-07-24T07:18:05.875Z,29.00
2018-07-24T07:20:31.869Z,28.36
2018-07-24T07:22:57.892Z,28.92
2018-07-24T07:25:23.845Z,29.28
2018-07-24T07:27:49.830Z,29.16
2018-07-24T07:30:15.851Z,29.08
2018-07-24T07:32:41.846Z,28.88
2018-07-24T07:37:41.033Z,29.28
2018-07-24T07:40:07.029Z,29.85
2018-07-24T07:42:33.044Z,29.74
2018-07-24T07:44:59.039Z,29.92
2018-07-24T07:47:25.033Z,29.76
2018-07-24T07:49:51.018Z,29.82
2018-07-24T07:52:17.013Z,29.69
2018-07-24T07:54:42.969Z,29.97
2018-07-24T07:57:08.951Z,29.82
2018-07-24T07:59:34.913Z,29.83
2018-07-24T08:02:00.960Z,29.72
2018-07-24T08:04:26.973Z,29.88
2018-07-24T08:06:52.947Z,29.64
2018-07-24T08:09:18.934Z,29.56
2018-07-24T08:11:44.907Z,29.61
2018-07-24T08:14:10.950Z,29.21
2018-07-24T08:16:36.863Z,29.35
2018-07-24T08:19:02.804Z,29.21
2018-07-24T08:21:28.841Z,28.96
2018-07-24T08:23:54.838Z,28.99
2018-07-24T08:26:20.804Z,29.48
2018-07-24T08:28:46.849Z,29.48
2018-07-24T08:31:12.805Z,28.94
2018-07-24T08:33:38.807Z,29.02
2018-07-24T08:36:04.719Z,28.92
2018-07-24T08:38:30.729Z,28.65
2018-07-24T08:40:56.679Z,28.66
2018-07-24T08:43:22.689Z,28.40
2018-07-24T08:45:48.630Z,28.33
2018-07-24T08:48:14.610Z,28.18
2018-07-24T08:50:40.622Z,28.31
2018-07-24T08:53:06.712Z,28.11
2018-07-24T08:55:33.112Z,28.23
2018-07-24T08:57:58.545Z,28.27
2018-07-24T09:00:24.472Z,28.25
2018-07-24T09:02:50.446Z,28.20
2018-07-24T09:05:16.469Z,28.13
2018-07-24T09:07:42.463Z,27.91
2018-07-24T09:10:08.734Z,28.06
2018-07-24T09:12:34.673Z,28.15
2018-07-24T09:15:00.614Z,28.19
2018-07-24T09:17:26.572Z,28.12
2018-07-24T09:19:52.517Z,28.05
2018-07-24T09:22:18.470Z,28.00
2018-07-24T09:24:44.444Z,27.93
2018-07-24T09:27:10.397Z,28.08
2018-07-24T09:29:36.354Z,28.06
2018-07-24T09:34:34.656Z,28.04
2018-07-24T09:37:00.614Z,27.83
2018-07-24T09:39:26.568Z,27.81
2018-07-24T09:41:52.534Z,27.72
2018-07-24T09:44:18.475Z,27.61
2018-07-24T09:46:44.423Z,27.69
2018-07-24T09:49:10.376Z,27.74
2018-07-24T09:51:36.359Z,27.81
2018-07-24T09:54:02.382Z,27.82
2018-07-24T09:56:28.391Z,27.83
2018-07-24T09:58:54.324Z,27.78
2018-07-24T10:01:20.341Z,27.79
2018-07-24T10:03:46.373Z,27.81
2018-07-24T10:06:12.335Z,27.77
2018-07-24T10:08:38.388Z,27.67
2018-07-24T10:11:04.369Z,27.64
2018-07-24T10:13:30.361Z,27.69
2018-07-24T10:15:56.325Z,27.70
2018-07-24T10:18:22.332Z,27.71
2018-07-24T10:20:48.330Z,27.69
2018-07-24T10:23:14.259Z,27.70
2018-07-24T10:25:40.238Z,27.67
2018-07-24T10:28:06.341Z,27.70
2018-07-24T10:30:32.365Z,27.70
2018-07-24T10:32:58.309Z,27.66
2018-07-24T10:35:24.248Z,27.63
2018-07-24T10:37:50.214Z,27.59
2018-07-24T10:40:16.159Z,27.60
2018-07-24T10:42:42.180Z,27.60
2018-07-24T10:45:08.127Z,27.60
2018-07-24T10:47:34.079Z,27.65
2018-07-24T10:50:00.078Z,27.62
2018-07-24T10:52:26.040Z,27.61
2018-07-24T10:54:52.047Z,27.61
2018-07-24T10:57:18.007Z,27.62
2018-07-24T10:59:43.990Z,27.62
2018-07-24T11:02:09.995Z,27.62
2018-07-24T11:04:35.960Z,27.60
2018-07-24T11:07:02.038Z,27.60
2018-07-24T11:09:28.032Z,27.59
2018-07-24T11:11:54.021Z,27.57
2018-07-24T11:14:20.110Z,27.57
2018-07-24T11:16:46.061Z,27.57
2018-07-24T11:19:12.006Z,27.59
2018-07-24T11:21:38.012Z,27.61
2018-07-24T11:24:04.038Z,27.59
2018-07-24T11:26:30.051Z,27.58
2018-07-24T11:28:56.041Z,27.56
2018-07-24T11:31:21.994Z,27.61
2018-07-24T11:33:47.944Z,27.58
2018-07-24T11:36:13.903Z,27.54
2018-07-24T11:38:39.908Z,27.55
2018-07-24T11:41:05.923Z,27.44
2018-07-24T11:43:31.924Z,27.43
2018-07-24T11:45:57.910Z,27.38
2018-07-24T11:48:23.854Z,27.39
2018-07-24T11:50:49.876Z,27.18
2018-07-24T11:53:15.844Z,27.08
2018-07-24T11:55:41.830Z,27.16
2018-07-24T11:58:07.898Z,27.03
2018-07-24T12:00:34.514Z,27.03
2018-07-24T12:03:00.497Z,27.06
2018-07-24T12:05:26.492Z,27.04
2018-07-24T12:07:52.526Z,26.99
2018-07-24T12:10:18.559Z,26.98
2018-07-24T12:12:44.661Z,26.98
2018-07-24T12:15:11.973Z,27.05
2018-07-24T12:17:37.998Z,27.17
2018-07-24T12:20:04.092Z,27.08
2018-07-24T12:22:31.042Z,27.01
2018-07-24T12:24:57.108Z,27.32
2018-07-24T12:27:23.059Z,27.39
2018-07-24T12:29:49.039Z,27.19
2018-07-24T12:32:15.954Z,27.05
2018-07-24T12:34:41.924Z,27.08
2018-07-24T12:37:07.938Z,27.15
2018-07-24T12:39:33.905Z,27.19
2018-07-24T12:41:59.871Z,27.09
2018-07-24T12:44:25.839Z,27.13
2018-07-24T12:46:51.797Z,27.19
2018-07-24T12:49:17.788Z,27.14
2018-07-24T12:51:43.760Z,27.24
2018-07-24T12:54:09.716Z,27.17
2018-07-24T12:56:35.762Z,27.12
2018-07-24T12:59:01.711Z,27.25
2018-07-24T13:01:27.687Z,27.29
2018-07-24T13:03:53.784Z,27.35
2018-07-24T13:06:19.776Z,27.27
2018-07-24T13:08:45.800Z,27.27
2018-07-24T13:11:11.809Z,27.21
2018-07-24T13:13:37.755Z,27.31
2018-07-24T13:16:04.333Z,27.27
2018-07-24T13:18:30.313Z,27.21
2018-07-24T13:20:56.309Z,27.16
2018-07-24T13:23:22.309Z,27.11
2018-07-24T13:25:48.325Z,27.20
2018-07-24T13:28:14.283Z,27.20
2018-07-24T13:30:40.268Z,27.18
2018-07-24T13:33:06.213Z,27.19
2018-07-24T13:35:32.168Z,27.14
2018-07-24T13:37:58.131Z,27.22
2018-07-24T13:40:24.069Z,27.15
2018-07-24T13:42:50.004Z,27.24
2018-07-24T13:45:15.960Z,27.18
2018-07-24T13:47:41.934Z,27.20
2018-07-24T13:50:08.939Z,27.18
2018-07-24T13:52:34.891Z,27.24
2018-07-24T13:55:00.911Z,27.22
2018-07-24T13:57:26.868Z,27.24
2018-07-24T13:59:52.811Z,27.24
2018-07-24T14:02:18.783Z,27.22
2018-07-24T14:04:44.769Z,27.21
2018-07-24T14:07:10.750Z,27.25
2018-07-24T14:09:36.703Z,27.26
2018-07-24T14:12:02.652Z,27.23
2018-07-24T14:14:28.625Z,27.20
2018-07-24T14:16:54.598Z,27.20
2018-07-24T14:19:20.592Z,27.19
2018-07-24T14:21:46.753Z,27.17
2018-07-24T14:24:12.645Z,27.19
2018-07-24T14:26:38.626Z,27.19
2018-07-24T14:29:04.599Z,27.18
2018-07-24T14:31:30.610Z,27.19
2018-07-24T14:33:56.572Z,27.34
2018-07-24T14:36:22.592Z,27.46
2018-07-24T14:38:48.556Z,27.35
2018-07-24T14:41:14.518Z,27.27
2018-07-24T14:43:40.477Z,27.22
2018-07-24T14:46:06.601Z,27.21
2018-07-24T14:48:32.581Z,27.22
2018-07-24T14:50:58.536Z,27.42
2018-07-24T14:53:24.527Z,27.53
2018-07-24T14:55:50.528Z,27.58
2018-07-24T14:58:16.520Z,27.42
2018-07-24T15:00:42.508Z,27.37
2018-07-24T15:03:09.065Z,27.50
2018-07-24T15:05:35.027Z,27.48
2018-07-24T15:08:01.034Z,27.62
2018-07-24T15:10:27.117Z,27.44
2018-07-24T15:12:53.101Z,27.37
2018-07-24T15:15:19.061Z,27.31
2018-07-24T15:17:45.056Z,27.31
2018-07-24T15:20:11.130Z,27.30
2018-07-24T15:22:38.500Z,27.29
2018-07-24T15:25:06.509Z,27.40
2018-07-24T15:27:32.529Z,27.39
2018-07-24T15:29:58.523Z,27.39
2018-07-24T15:32:24.507Z,27.44
2018-07-24T15:34:50.584Z,27.38
2018-07-24T15:37:16.564Z,27.35
2018-07-24T15:39:42.526Z,27.40
2018-07-24T15:42:08.604Z,27.38
2018-07-24T15:44:34.546Z,27.38
2018-07-24T15:47:00.564Z,27.36
2018-07-24T15:59:32.225Z,27.32
2018-07-24T16:01:58.298Z,27.35
2018-07-24T16:04:24.316Z,27.35
2018-07-24T16:06:50.295Z,27.47
2018-07-24T16:09:16.656Z,27.71
2018-07-24T16:11:42.634Z,27.55
2018-07-24T16:14:09.681Z,27.46
2018-07-24T16:16:35.823Z,27.48
2018-07-24T16:19:01.793Z,27.42
2018-07-24T16:21:27.730Z,27.56
2018-07-24T16:23:53.744Z,27.63
2018-07-24T16:26:19.709Z,27.49
2018-07-24T16:28:45.713Z,27.46
2018-07-24T16:31:11.675Z,27.57
2018-07-24T16:33:37.674Z,27.50
2018-07-24T16:53:49.270Z,27.62
2018-07-24T17:01:22.586Z,27.70
2018-07-24T17:03:48.559Z,27.95
2018-07-24T17:06:14.517Z,27.77
2018-07-24T17:08:41.280Z,27.61
2018-07-24T17:11:07.310Z,27.74
2018-07-24T17:13:33.347Z,27.79
2018-07-24T17:15:59.288Z,27.89
2018-07-24T17:18:25.255Z,27.76
2018-07-24T17:20:51.192Z,27.72
2018-07-24T17:23:17.766Z,27.79
2018-07-24T17:25:43.728Z,27.82
2018-07-24T17:28:09.745Z,27.70
2018-07-24T17:30:35.699Z,27.67
2018-07-24T17:33:02.533Z,27.59
2018-07-24T17:38:02.296Z,27.57
2018-07-24T17:40:28.275Z,27.52
2018-07-24T17:42:54.344Z,27.63
2018-07-24T17:45:20.319Z,27.60
2018-07-24T17:47:46.349Z,27.61
2018-07-24T17:50:12.350Z,27.64
2018-07-24T17:55:15.559Z,27.60
2018-07-24T17:57:41.501Z,27.61
2018-07-24T18:00:08.215Z,27.57
2018-07-24T18:07:40.631Z,27.57
2018-07-24T18:10:06.688Z,27.60
2018-07-24T18:12:32.666Z,27.59
2018-07-24T18:14:58.707Z,27.64
2018-07-24T18:17:24.774Z,27.69
2018-07-24T18:19:50.765Z,27.61
2018-07-24T18:22:16.721Z,27.62
2018-07-24T18:24:42.831Z,27.60
2018-07-24T18:27:08.832Z,27.56
2018-07-24T18:29:34.993Z,27.56
2018-07-24T18:32:03.134Z,27.52
2018-07-24T18:34:29.137Z,27.53
2018-07-24T18:36:55.135Z,27.51
2018-07-24T18:39:21.147Z,27.51
2018-07-24T18:41:47.847Z,27.51
2018-07-24T18:44:13.955Z,27.50
2018-07-24T18:46:40.107Z,27.48
2018-07-24T18:49:06.108Z,27.48
2018-07-24T18:51:32.796Z,27.45
2018-07-24T18:53:58.820Z,27.47
2018-07-24T18:56:24.942Z,27.45
2018-07-24T18:58:51.029Z,27.45
2018-07-24T19:01:17.040Z,27.43
2018-07-24T19:03:43.031Z,27.42
2018-07-24T19:06:09.890Z,27.42
2018-07-24T19:08:35.857Z,27.41
2018-07-24T19:11:01.898Z,27.39
2018-07-24T19:13:27.959Z,27.43
2018-07-24T19:15:53.999Z,27.42
2018-07-24T19:18:20.087Z,27.43
2018-07-24T19:20:46.108Z,27.39
2018-07-24T19:23:12.186Z,27.40
2018-07-24T19:25:38.836Z,27.41
2018-07-24T19:28:06.167Z,27.39
2018-07-24T19:30:32.248Z,27.39
2018-07-24T19:32:58.408Z,27.37
2018-07-24T19:35:24.779Z,27.38
2018-07-24T19:37:50.869Z,27.36
2018-07-24T19:40:18.938Z,27.35
2018-07-24T19:45:19.525Z,27.36
2018-07-24T19:47:49.460Z,27.35
2018-07-24T19:50:15.497Z,27.36
2018-07-24T19:52:41.648Z,27.34
2018-07-24T19:55:08.549Z,27.30
2018-07-24T19:57:34.628Z,27.26
2018-07-24T20:00:00.617Z,27.26
2018-07-24T20:02:26.681Z,27.23
2018-07-24T20:04:53.623Z,27.21
2018-07-24T20:07:19.798Z,27.20
2018-07-24T20:09:45.926Z,27.20
2018-07-24T20:12:11.950Z,27.17
2018-07-24T20:14:38.001Z,27.16
2018-07-24T20:17:06.193Z,27.13
2018-07-24T20:19:32.295Z,27.07
2018-07-24T20:21:58.297Z,27.04
2018-07-24T20:24:24.354Z,27.06
2018-07-24T20:26:50.371Z,27.01
2018-07-24T20:29:16.722Z,26.97
2018-07-24T20:31:42.940Z,26.98
2018-07-24T20:34:08.968Z,26.90
2018-07-24T20:36:35.012Z,26.88
2018-07-24T20:39:01.405Z,26.84
2018-07-24T20:41:27.447Z,26.94
2018-07-24T20:43:57.038Z,26.94
2018-07-24T20:46:23.302Z,26.94
2018-07-24T20:48:49.356Z,26.92
2018-07-24T20:51:15.468Z,26.82
2018-07-24T20:53:41.455Z,26.78
2018-07-24T20:56:07.476Z,26.76
2018-07-24T20:58:33.491Z,26.71
2018-07-24T21:00:59.589Z,26.57
2018-07-24T21:03:25.634Z,26.59
2018-07-24T21:05:51.671Z,26.62
2018-07-24T21:08:17.648Z,26.57
2018-07-24T21:10:44.604Z,26.51
2018-07-24T21:13:10.688Z,26.47
2018-07-24T21:15:36.689Z,26.56
2018-07-24T21:18:02.729Z,26.45
2018-07-24T21:20:28.738Z,26.31
2018-07-24T21:22:54.699Z,26.27
2018-07-24T21:25:20.802Z,26.35
2018-07-24T21:27:46.825Z,26.22
2018-07-24T21:30:12.855Z,26.03
2018-07-24T21:32:38.845Z,25.95
2018-07-24T21:35:04.839Z,25.88
2018-07-24T21:37:30.900Z,25.90
2018-07-24T21:39:56.893Z,25.70
2018-07-24T21:42:22.943Z,25.65
2018-07-24T21:44:48.967Z,25.61
2018-07-24T21:47:14.988Z,25.54
2018-07-24T21:49:41.037Z,25.76
2018-07-24T21:52:07.074Z,25.63
2018-07-24T21:54:33.119Z,25.45
2018-07-24T21:56:59.136Z,25.62
2018-07-24T21:59:25.110Z,25.31
2018-07-24T22:01:51.109Z,25.52
2018-07-24T22:04:17.146Z,25.59
2018-07-24T22:06:43.178Z,25.13
2018-07-24T22:09:09.207Z,25.17
2018-07-24T22:11:35.191Z,25.13
2018-07-24T22:14:01.201Z,25.15
2018-07-24T22:16:27.210Z,25.26
2018-07-24T22:18:53.218Z,25.14
2018-07-24T22:21:19.180Z,25.18
2018-07-24T22:23:45.201Z,24.97
2018-07-24T22:26:11.199Z,25.01
2018-07-24T22:28:37.212Z,25.13
2018-07-24T22:31:03.198Z,24.98
2018-07-24T22:33:29.190Z,24.85
2018-07-24T22:35:55.177Z,24.70
2018-07-24T22:38:21.167Z,24.74
2018-07-24T22:40:47.155Z,24.63
2018-07-24T22:43:13.219Z,24.74
2018-07-24T22:45:39.250Z,24.46
2018-07-24T22:48:05.294Z,24.53
2018-07-24T22:50:31.439Z,24.64
2018-07-24T22:52:57.433Z,24.65
2018-07-24T22:55:23.421Z,24.56
2018-07-24T22:57:49.430Z,24.69
2018-07-24T23:00:15.454Z,24.92
2018-07-24T23:02:41.477Z,24.78
2018-07-24T23:05:07.483Z,24.42
2018-07-24T23:07:33.443Z,24.56
2018-07-24T23:09:59.457Z,24.70
2018-07-24T23:12:25.531Z,24.56
2018-07-24T23:14:51.564Z,24.74
2018-07-24T23:17:17.570Z,24.39
2018-07-24T23:19:43.542Z,24.46
2018-07-24T23:22:09.545Z,24.60
2018-07-24T23:24:35.538Z,24.65
2018-07-24T23:29:33.927Z,24.48
2018-07-24T23:31:59.930Z,24.59
2018-07-24T23:34:25.936Z,24.60
2018-07-24T23:36:51.902Z,24.42
2018-07-24T23:39:17.882Z,24.63
2018-07-24T23:41:43.903Z,24.70
2018-07-24T23:44:09.899Z,24.78
2018-07-24T23:46:35.935Z,24.56
2018-07-24T23:49:01.943Z,24.60
2018-07-24T23:51:27.914Z,24.37
2018-07-24T23:53:53.908Z,24.28
2018-07-24T23:56:20.727Z,24.31
2018-07-24T23:58:46.771Z,24.69
